EDFMEBOS

Guest
Details From EDFM - Mannheim City
To EBOS - Oostende
Flight Number -
Tags Generated
Created
Modified
Stats Distance 240 nm / 445 km
Max Altitude 0 ft / 0 m
Waypoints 3
Social Downloads 0
Likes 0
Share VATSIM

Download

Looking for another format? Having issues loading an existing format? Contact us
Advertisement - Login to hide

Notes

Generated

Route

EDFM KOK25 EBOS

ID Type Via Altitude Latitude Longitude Leg Dist Tot Dist Heading (true) Name
O EDFM APT - 0 ft / 0 m 49.47321˚ 8.51054˚ - 0 nm - Mannheim City
KOK25 FIX - 0 ft / 0 m 51.01346˚ 3.29975˚ 220 nm 220 nm 297° / 293° -
O EBOS APT - 0 ft / 0 m 51.19832˚ 2.86670˚ 19 nm 240 nm 304° / 304° -

Altitude Profile

Advertisement - Login to hide

Weather


0- 5 10 15 20 25 30 35+ Temperature / ° C

Clouds and Precipitation
Forecast for 2018-05-27 12:00 UTC. Updated 5 hours ago

Ground ~20,000 ft ~40,000 ft Winds

EDFM

Details ICAO EDFM (MHG)
Name Mannheim City
Region Germany - Civil
Timezone Europe/Berlin (UTC+2.0)
Stats Elevation 309 ft / 94 m (AMSL)
Location 49.473059° 8.514394°
Runways 2
Magnetic Variation 2.395° E

METAR

EDFM 271620Z 04004KT 350V120 9999 FEW055CB BKN097 23/19 Q1016

Decode

TAF

Not found

Departure Runways

ID Width Length Bearing (true) Bearing (mag) Surface Threshold Offset Overrun Length
09 82 ft / 25 m 3,476 ft / 1,060 m 93.02° 90.63° Asphalt 0 ft / 0 m 0 ft / 0 m
09L 98 ft / 30 m 2,290 ft / 698 m 93.00° 90.61° Grass 246 ft / 75 m 0 ft / 0 m
27 82 ft / 25 m 3,476 ft / 1,060 m 273.04° 270.65° Asphalt 180 ft / 55 m 0 ft / 0 m
27R 98 ft / 30 m 2,290 ft / 698 m 273.00° 270.61° Grass 82 ft / 25 m 0 ft / 0 m

EBOS

Details ICAO EBOS (OST)
Name Oostende
Region Belgium
Timezone Europe/Brussels (UTC+2.0)
Stats Elevation 13 ft / 4 m (AMSL)
Location 51.199967° 2.875008°
Runways 1
Magnetic Variation 0.652° E

METAR

EBOS 271620Z 23004KT 200V270 9999 FEW035CB 18/16 Q1015 RETSRA TEMPO VRB15G30KT 1500 TSRAGR

Decode

TAF

TAF EBOS 271111Z 2712/2818 11007KT 9999 FEW045TCU PROB30 TEMPO 2712/2803 VRB20G35KT 2500 +SHRA TSRAGR TEMPO 2803/2807 3000 BR PROB30 TEMPO 2804/2806 1500 MIFG PROB30 TEMPO 2814/2818 VRB20G35KT 2500 +SHRA TSRAGR

Decode

Destination Runways

ID Width Length Bearing (true) Bearing (mag) Surface Threshold Offset Overrun Length
08 148 ft / 45 m 10,515 ft / 3,205 m 76.36° 75.71° Asphalt 984 ft / 300 m 0 ft / 0 m
26 148 ft / 45 m 10,515 ft / 3,205 m 256.39° 255.74° Asphalt 1,362 ft / 415 m 0 ft / 0 m

Approach Navaids

Runway Type Ident Frequency Range Bearing (true) Bearing (mag) Slope Elevation
08 Localiser IMI 111.55 MHz 18 nm / 33 km 76.37° 75.72° - 13 ft / 4 m (AMSL)
08 Glidescope IMI 111.55 MHz 10 nm / 19 km 76.37° 75.72° 3.00° 13 ft / 4 m (AMSL)
08 DME IMI 111.55 MHz 18 nm / 33 km - - - 13 ft / 4 m (AMSL)
26 Localiser IOS 109.50 MHz 18 nm / 33 km 256.37° 255.72° - 13 ft / 4 m (AMSL)
26 Glidescope IOS 109.50 MHz 10 nm / 19 km 256.37° 255.72° 3.00° 13 ft / 4 m (AMSL)